createdAt,value
2023-05-19T00:01:20.409Z,10.00
2023-05-19T00:03:55.168Z,10.10
2023-05-19T00:06:33.255Z,10.10
2023-05-19T00:09:05.915Z,10.10
2023-05-19T00:11:38.316Z,10.20
2023-05-19T00:14:07.351Z,10.20
2023-05-19T00:16:35.262Z,10.20
2023-05-19T00:19:04.768Z,10.10
2023-05-19T00:21:32.050Z,10.00
2023-05-19T00:23:59.057Z,10.00
2023-05-19T00:26:27.178Z,9.90
2023-05-19T00:28:54.486Z,9.80
2023-05-19T00:31:21.487Z,9.80
2023-05-19T00:33:48.322Z,9.90
2023-05-19T00:36:15.248Z,10.00
2023-05-19T00:38:42.031Z,10.00
2023-05-19T00:41:09.096Z,10.10
2023-05-19T00:43:36.013Z,10.10
2023-05-19T00:46:03.767Z,10.10
2023-05-19T00:48:30.854Z,10.20
2023-05-19T00:51:04.590Z,10.20
2023-05-19T00:53:35.496Z,10.20
2023-05-19T00:56:03.488Z,10.20
2023-05-19T00:58:32.667Z,10.20
2023-05-19T01:01:06.970Z,10.10
2023-05-19T01:03:36.081Z,10.00
2023-05-19T01:06:07.264Z,10.00
2023-05-19T01:08:35.815Z,9.90
2023-05-19T01:11:03.434Z,9.80
2023-05-19T01:13:30.846Z,9.60
2023-05-19T01:16:10.139Z,9.60
2023-05-19T01:18:42.834Z,9.70
2023-05-19T01:21:16.059Z,9.90
2023-05-19T01:23:57.037Z,10.00
2023-05-19T01:26:51.189Z,10.10
2023-05-19T01:29:36.690Z,10.10
2023-05-19T01:32:06.727Z,10.10
2023-05-19T01:34:36.117Z,10.10
2023-05-19T01:37:04.010Z,10.10
2023-05-19T01:39:32.386Z,9.90
2023-05-19T01:42:00.748Z,10.00
2023-05-19T01:44:28.945Z,10.00
2023-05-19T01:46:56.324Z,10.00
2023-05-19T01:49:23.193Z,10.00
2023-05-19T01:51:50.350Z,10.00
2023-05-19T01:54:17.153Z,10.00
2023-05-19T01:57:08.349Z,10.00
2023-05-19T01:59:50.360Z,10.10
2023-05-19T02:02:23.893Z,9.90
2023-05-19T02:04:57.585Z,9.80
2023-05-19T02:07:44.348Z,9.80
2023-05-19T02:10:15.534Z,9.80
2023-05-19T02:12:43.675Z,9.70
2023-05-19T02:15:27.139Z,9.70
2023-05-19T02:17:56.017Z,9.70
2023-05-19T02:20:22.921Z,9.80
2023-05-19T02:22:49.771Z,9.90
2023-05-19T02:25:16.640Z,9.90
2023-05-19T02:27:43.501Z,9.80
2023-05-19T02:30:11.008Z,9.70
2023-05-19T02:32:38.036Z,9.70
2023-05-19T02:35:05.328Z,9.80
2023-05-19T02:37:32.607Z,9.80
2023-05-19T02:39:59.626Z,9.80
2023-05-19T02:42:26.475Z,9.90
2023-05-19T02:44:54.643Z,9.90
2023-05-19T02:47:21.554Z,9.90
2023-05-19T02:49:48.469Z,9.80
2023-05-19T02:52:15.401Z,9.80
2023-05-19T02:54:42.203Z,9.80
2023-05-19T02:57:09.040Z,9.70
2023-05-19T02:59:36.685Z,9.60
2023-05-19T03:02:03.770Z,9.60
2023-05-19T03:04:30.641Z,9.60
2023-05-19T03:06:57.860Z,9.50
2023-05-19T03:09:24.789Z,9.60
2023-05-19T03:11:51.637Z,9.60
2023-05-19T03:14:18.829Z,9.50
2023-05-19T03:16:45.909Z,9.50
2023-05-19T03:19:13.018Z,9.60
2023-05-19T03:21:39.988Z,9.60
2023-05-19T03:24:07.200Z,9.50
2023-05-19T03:26:34.015Z,9.50
2023-05-19T03:29:01.178Z,9.50
2023-05-19T03:31:28.476Z,9.70
2023-05-19T03:33:55.495Z,9.80
2023-05-19T03:36:22.681Z,9.80
2023-05-19T03:38:49.867Z,9.80
2023-05-19T03:41:16.673Z,9.80
2023-05-19T03:43:43.558Z,9.80
2023-05-19T03:46:10.492Z,9.80
2023-05-19T03:48:37.350Z,9.70
2023-05-19T03:51:04.491Z,9.60
2023-05-19T03:53:31.380Z,9.70
2023-05-19T03:55:59.446Z,9.70
2023-05-19T03:58:26.887Z,9.60
2023-05-19T04:00:53.720Z,9.60
2023-05-19T04:03:21.105Z,9.60
2023-05-19T04:05:48.242Z,9.50
2023-05-19T04:08:15.065Z,9.60
2023-05-19T04:10:41.915Z,9.70
2023-05-19T04:13:08.764Z,9.70
2023-05-19T04:15:35.754Z,9.70
2023-05-19T04:18:02.756Z,9.70
2023-05-19T04:20:29.724Z,9.80
2023-05-19T04:22:56.596Z,9.80
2023-05-19T04:25:25.235Z,9.80
2023-05-19T04:27:53.022Z,9.80
2023-05-19T04:30:29.997Z,9.80
2023-05-19T04:32:58.203Z,9.80
2023-05-19T04:35:25.289Z,9.90
2023-05-19T04:37:54.406Z,9.90
2023-05-19T04:40:23.694Z,10.00
2023-05-19T04:42:52.431Z,10.00
2023-05-19T04:45:19.604Z,10.10
2023-05-19T04:47:49.316Z,10.00
2023-05-19T04:50:17.082Z,9.90
2023-05-19T04:52:47.304Z,9.90
2023-05-19T04:55:14.289Z,10.00
2023-05-19T04:57:41.761Z,10.10
2023-05-19T05:00:12.194Z,10.10
2023-05-19T05:02:41.448Z,10.10
2023-05-19T05:05:09.486Z,10.00
2023-05-19T05:07:36.628Z,10.00
2023-05-19T05:10:04.027Z,10.00
2023-05-19T05:12:31.761Z,10.00
2023-05-19T05:14:58.961Z,10.10
2023-05-19T05:17:27.219Z,10.00
2023-05-19T05:19:54.580Z,10.10
2023-05-19T05:22:21.725Z,10.20
2023-05-19T05:24:49.491Z,10.30
2023-05-19T05:27:16.340Z,10.20
2023-05-19T05:29:43.691Z,10.20
2023-05-19T05:32:10.614Z,10.20
2023-05-19T05:34:39.836Z,10.20
2023-05-19T05:37:06.713Z,10.10
2023-05-19T05:39:33.674Z,10.10
2023-05-19T05:42:01.023Z,10.10
2023-05-19T05:44:27.916Z,10.30
2023-05-19T05:46:54.960Z,10.30
2023-05-19T05:49:21.998Z,10.30
2023-05-19T05:52:01.937Z,10.40
2023-05-19T05:54:33.177Z,10.50
2023-05-19T05:57:00.704Z,10.60
2023-05-19T05:59:27.663Z,10.50
2023-05-19T06:01:54.480Z,10.60
2023-05-19T06:04:21.424Z,10.60
2023-05-19T06:06:48.608Z,10.70
2023-05-19T06:09:15.500Z,10.60
2023-05-19T06:11:42.309Z,10.70
2023-05-19T06:14:09.347Z,10.70
2023-05-19T06:16:36.307Z,10.70
2023-05-19T06:19:03.280Z,10.70
2023-05-19T06:21:30.102Z,10.80
2023-05-19T06:23:56.916Z,10.90
2023-05-19T06:26:23.722Z,10.90
2023-05-19T06:28:50.532Z,10.70
2023-05-19T06:31:17.558Z,10.60
2023-05-19T06:33:44.394Z,10.60
2023-05-19T06:36:12.047Z,10.60
2023-05-19T06:38:38.890Z,10.70
2023-05-19T06:41:05.769Z,10.70
2023-05-19T06:43:33.862Z,10.80
2023-05-19T06:46:00.700Z,11.00
2023-05-19T06:48:27.570Z,11.10
2023-05-19T06:50:58.519Z,11.00
2023-05-19T06:53:25.385Z,11.00
2023-05-19T06:55:59.279Z,11.20
2023-05-19T06:58:27.195Z,11.40
2023-05-19T07:00:54.048Z,11.60
2023-05-19T07:03:20.914Z,11.70
2023-05-19T07:05:47.996Z,11.60
2023-05-19T07:08:14.782Z,11.70
2023-05-19T07:10:41.611Z,11.90
2023-05-19T07:13:08.410Z,12.00
2023-05-19T07:15:35.301Z,11.60
2023-05-19T07:18:02.164Z,11.80
2023-05-19T07:20:29.029Z,11.70
2023-05-19T07:22:56.003Z,11.90
2023-05-19T07:25:22.848Z,12.00
2023-05-19T07:27:49.684Z,12.10
2023-05-19T07:30:16.479Z,12.10
2023-05-19T07:32:43.304Z,12.20
2023-05-19T07:35:10.115Z,12.40
2023-05-19T07:37:36.911Z,12.60
2023-05-19T07:40:29.008Z,12.50
2023-05-19T07:42:55.833Z,12.40
2023-05-19T07:45:22.874Z,12.40
2023-05-19T07:47:49.739Z,12.40
2023-05-19T07:50:16.619Z,12.30
2023-05-19T07:52:43.406Z,12.60
2023-05-19T07:55:10.203Z,12.70
2023-05-19T07:57:37.215Z,12.60
2023-05-19T08:00:08.060Z,12.60
2023-05-19T08:02:34.963Z,12.80
2023-05-19T08:05:01.865Z,12.90
2023-05-19T08:07:28.842Z,13.00
2023-05-19T08:09:55.907Z,13.10
2023-05-19T08:12:22.802Z,13.30
2023-05-19T08:14:49.603Z,13.40
2023-05-19T08:17:16.579Z,13.70
2023-05-19T08:19:43.412Z,13.90
2023-05-19T08:22:10.197Z,14.00
2023-05-19T08:24:37.185Z,13.90
2023-05-19T08:27:05.036Z,13.70
2023-05-19T08:29:31.959Z,13.70
2023-05-19T08:31:58.774Z,13.40
2023-05-19T08:34:25.712Z,13.60
2023-05-19T08:36:53.473Z,13.90
2023-05-19T08:39:25.252Z,14.00
2023-05-19T08:41:52.577Z,14.00
2023-05-19T08:44:19.599Z,13.90
2023-05-19T08:46:48.122Z,13.50
2023-05-19T08:49:18.918Z,13.50
2023-05-19T08:52:17.238Z,13.60
2023-05-19T08:54:52.833Z,13.90
2023-05-19T08:57:19.962Z,14.10
2023-05-19T09:00:11.833Z,14.10
2023-05-19T09:02:50.299Z,14.20
2023-05-19T09:05:30.273Z,14.20
2023-05-19T09:07:57.205Z,13.70
2023-05-19T09:10:24.084Z,13.70
2023-05-19T09:12:51.574Z,13.70
2023-05-19T09:15:19.344Z,13.70
2023-05-19T09:17:48.104Z,13.70
2023-05-19T09:20:17.427Z,13.60
2023-05-19T09:22:47.308Z,13.90
2023-05-19T09:25:23.532Z,13.80
2023-05-19T09:27:50.744Z,13.70
2023-05-19T09:30:18.293Z,13.70
2023-05-19T09:32:47.164Z,13.70
2023-05-19T09:35:17.181Z,13.70
2023-05-19T09:37:44.108Z,13.60
2023-05-19T09:40:13.456Z,13.80
2023-05-19T09:42:41.245Z,14.10
2023-05-19T09:45:11.968Z,14.40
2023-05-19T09:47:41.322Z,14.60
2023-05-19T09:50:09.682Z,14.70
2023-05-19T09:52:38.684Z,14.70
2023-05-19T09:55:09.193Z,14.40
2023-05-19T09:57:37.323Z,14.30
2023-05-19T10:00:14.698Z,14.00
2023-05-19T10:02:46.517Z,14.00
2023-05-19T10:05:17.632Z,13.80
2023-05-19T10:07:45.855Z,13.80
2023-05-19T10:10:14.099Z,14.10
2023-05-19T10:12:42.165Z,14.50
2023-05-19T10:15:13.904Z,14.70
2023-05-19T10:17:42.385Z,14.80
2023-05-19T10:20:14.702Z,15.20
2023-05-19T10:22:43.047Z,15.00
2023-05-19T10:25:11.329Z,14.70
2023-05-19T10:27:44.294Z,14.40
2023-05-19T10:30:16.325Z,14.50
2023-05-19T10:32:46.720Z,14.40
2023-05-19T10:35:24.011Z,14.60
2023-05-19T10:38:14.110Z,14.70
2023-05-19T10:41:02.104Z,15.10
2023-05-19T10:44:01.570Z,15.40
2023-05-19T10:46:30.183Z,15.40
2023-05-19T10:48:57.080Z,15.40
2023-05-19T10:51:33.974Z,15.20
2023-05-19T10:54:16.066Z,15.00
2023-05-19T10:56:47.479Z,14.90
2023-05-19T10:59:35.107Z,15.40
2023-05-19T11:02:06.167Z,15.70
2023-05-19T11:04:56.383Z,15.70
2023-05-19T11:07:24.877Z,16.40
2023-05-19T11:09:52.703Z,16.60
2023-05-19T11:12:25.063Z,16.40
2023-05-19T11:14:55.959Z,16.50
2023-05-19T11:17:25.706Z,16.50
2023-05-19T11:19:57.747Z,16.60
2023-05-19T11:22:26.391Z,17.00
2023-05-19T11:24:55.688Z,17.30
2023-05-19T11:27:31.154Z,17.10
2023-05-19T11:30:09.566Z,16.40
2023-05-19T11:32:39.417Z,16.30
2023-05-19T11:35:07.894Z,16.30
2023-05-19T11:37:35.901Z,16.50
2023-05-19T11:40:07.616Z,16.40
2023-05-19T11:42:34.984Z,16.30
2023-05-19T11:45:02.157Z,16.50
2023-05-19T11:47:29.896Z,16.60
2023-05-19T11:49:57.764Z,16.60
2023-05-19T11:52:25.307Z,16.50
2023-05-19T11:54:52.462Z,16.50
2023-05-19T11:57:19.616Z,16.50
2023-05-19T11:59:48.327Z,16.40
2023-05-19T12:02:20.148Z,16.30
2023-05-19T12:04:50.930Z,16.30
2023-05-19T12:07:20.002Z,16.20
2023-05-19T12:09:47.525Z,16.20
2023-05-19T12:12:19.737Z,16.40
2023-05-19T12:14:47.626Z,16.20
2023-05-19T12:17:16.654Z,16.40
2023-05-19T12:19:45.314Z,16.60
2023-05-19T12:22:12.611Z,16.70
2023-05-19T12:24:40.091Z,16.90
2023-05-19T12:27:22.837Z,16.90
2023-05-19T12:29:52.295Z,16.90
2023-05-19T12:32:23.130Z,16.80
2023-05-19T12:34:50.583Z,16.80
2023-05-19T12:37:17.724Z,16.80
2023-05-19T12:39:44.732Z,16.80
2023-05-19T12:42:13.020Z,16.90
2023-05-19T12:44:46.791Z,17.00
2023-05-19T12:47:18.749Z,17.10
2023-05-19T12:50:09.599Z,17.10
2023-05-19T12:52:43.474Z,17.30
2023-05-19T12:55:14.165Z,17.00
2023-05-19T12:57:42.799Z,17.10
2023-05-19T13:00:20.768Z,17.30
2023-05-19T13:03:01.398Z,17.50
2023-05-19T13:05:53.919Z,17.40
2023-05-19T13:08:23.921Z,16.90
2023-05-19T13:10:50.949Z,16.80
2023-05-19T13:13:19.406Z,16.50
2023-05-19T13:15:50.226Z,16.00
2023-05-19T13:18:17.652Z,15.90
2023-05-19T13:20:45.503Z,16.10
2023-05-19T13:23:13.573Z,16.00
2023-05-19T13:25:41.479Z,16.00
2023-05-19T13:28:09.122Z,16.70
2023-05-19T13:30:38.647Z,17.60
2023-05-19T13:33:05.940Z,17.80
2023-05-19T13:35:37.168Z,17.60
2023-05-19T13:38:09.894Z,17.80
2023-05-19T13:40:37.733Z,18.20
2023-05-19T13:43:04.724Z,18.50
2023-05-19T13:45:32.587Z,17.70
2023-05-19T13:47:59.737Z,17.90
2023-05-19T13:50:26.708Z,17.90
2023-05-19T13:52:54.019Z,18.40
2023-05-19T13:55:21.163Z,18.40
2023-05-19T13:57:47.995Z,18.50
2023-05-19T14:00:15.348Z,18.60
2023-05-19T14:02:42.498Z,18.40
2023-05-19T14:05:09.986Z,17.20
2023-05-19T14:07:37.100Z,17.70
2023-05-19T14:10:06.450Z,18.20
2023-05-19T14:12:43.584Z,18.90
2023-05-19T14:15:14.620Z,19.00
2023-05-19T14:17:41.844Z,18.60
2023-05-19T14:20:09.689Z,17.80
2023-05-19T14:22:36.572Z,17.80
2023-05-19T14:25:03.824Z,17.80
2023-05-19T14:27:30.768Z,17.60
2023-05-19T14:29:57.908Z,17.40
2023-05-19T14:32:24.769Z,17.30
2023-05-19T14:34:52.947Z,17.50
2023-05-19T14:37:20.558Z,17.50
2023-05-19T14:39:47.403Z,17.60
2023-05-19T14:42:14.406Z,17.50
2023-05-19T14:44:41.179Z,17.40
2023-05-19T14:47:08.492Z,17.40
2023-05-19T14:49:35.469Z,17.50
2023-05-19T14:52:02.391Z,17.50
2023-05-19T14:54:29.221Z,17.70
2023-05-19T14:56:56.282Z,17.70
2023-05-19T14:59:23.173Z,17.80
2023-05-19T15:01:50.363Z,17.60
2023-05-19T15:04:17.348Z,17.40
2023-05-19T15:06:44.362Z,17.40
2023-05-19T15:09:14.944Z,17.40
2023-05-19T15:11:41.912Z,17.40
2023-05-19T15:14:08.777Z,17.20
2023-05-19T15:16:35.677Z,17.40
2023-05-19T15:19:02.602Z,17.60
2023-05-19T15:21:29.447Z,17.60
2023-05-19T15:23:56.286Z,17.30
2023-05-19T15:26:23.150Z,17.20
2023-05-19T15:28:49.975Z,17.30
2023-05-19T15:31:16.980Z,17.50
2023-05-19T15:33:43.878Z,17.20
2023-05-19T15:36:16.314Z,17.40
2023-05-19T15:38:43.242Z,17.40
2023-05-19T15:41:10.386Z,17.20
2023-05-19T15:43:37.386Z,17.40
2023-05-19T15:46:05.186Z,17.40
2023-05-19T15:48:32.412Z,17.40
2023-05-19T15:50:59.748Z,17.40
2023-05-19T15:53:26.915Z,17.30
2023-05-19T15:55:53.864Z,17.30
2023-05-19T15:58:20.704Z,17.40
2023-05-19T16:00:47.574Z,17.40
2023-05-19T16:03:14.560Z,17.30
2023-05-19T16:05:41.434Z,17.40
2023-05-19T16:08:08.905Z,17.20
2023-05-19T16:10:36.068Z,17.10
2023-05-19T16:13:02.904Z,17.00
2023-05-19T16:15:29.752Z,16.90
2023-05-19T16:17:57.313Z,16.80
2023-05-19T16:20:27.929Z,16.80
2023-05-19T16:22:55.517Z,16.80
2023-05-19T16:25:22.892Z,16.70
2023-05-19T16:27:50.192Z,16.70
2023-05-19T16:30:17.281Z,16.60
2023-05-19T16:32:44.374Z,16.50
2023-05-19T16:35:11.368Z,16.50
2023-05-19T16:37:38.302Z,16.30
2023-05-19T16:40:05.714Z,16.20
2023-05-19T16:42:32.754Z,16.30
2023-05-19T16:44:59.588Z,16.20
2023-05-19T16:47:26.503Z,16.00
2023-05-19T16:49:53.453Z,15.90
2023-05-19T16:52:20.606Z,15.80
2023-05-19T16:54:47.450Z,15.80
2023-05-19T16:57:14.921Z,15.80
2023-05-19T16:59:42.384Z,15.90
2023-05-19T17:02:09.391Z,16.00
2023-05-19T17:04:36.241Z,16.10
2023-05-19T17:07:03.151Z,16.10
2023-05-19T17:09:29.961Z,15.90
2023-05-19T17:11:56.757Z,15.80
2023-05-19T17:14:23.664Z,15.60
2023-05-19T17:16:52.547Z,15.40
2023-05-19T17:19:19.551Z,15.30
2023-05-19T17:21:46.499Z,15.10
2023-05-19T17:24:13.432Z,15.10
2023-05-19T17:26:40.397Z,14.70
2023-05-19T17:29:07.194Z,14.30
2023-05-19T17:31:34.220Z,14.30
2023-05-19T17:34:01.110Z,14.30
2023-05-19T17:36:28.055Z,14.40
2023-05-19T17:38:54.941Z,14.20
2023-05-19T17:41:21.966Z,13.90
2023-05-19T17:43:48.798Z,13.70
2023-05-19T17:46:15.642Z,13.70
2023-05-19T17:48:42.467Z,13.40
2023-05-19T17:51:09.609Z,13.30
2023-05-19T17:53:36.829Z,13.40
2023-05-19T17:56:06.630Z,13.20
2023-05-19T17:58:33.836Z,13.00
2023-05-19T18:01:00.817Z,12.90
2023-05-19T18:03:27.945Z,12.70
2023-05-19T18:05:55.086Z,12.70
2023-05-19T18:08:22.269Z,12.80
2023-05-19T18:10:51.637Z,13.00
2023-05-19T18:13:18.774Z,13.00
2023-05-19T18:15:45.564Z,12.90
2023-05-19T18:18:16.578Z,13.00
2023-05-19T18:20:45.602Z,12.70
2023-05-19T18:23:12.742Z,12.40
2023-05-19T18:25:39.662Z,12.40
2023-05-19T18:28:06.560Z,12.30
2023-05-19T18:30:33.724Z,12.20
2023-05-19T18:33:03.767Z,12.20
2023-05-19T18:35:31.068Z,12.00
2023-05-19T18:37:57.907Z,11.80
2023-05-19T18:40:24.846Z,11.70
2023-05-19T18:42:51.738Z,11.80
2023-05-19T18:45:18.776Z,11.90
2023-05-19T18:47:45.979Z,12.00
2023-05-19T18:50:13.246Z,12.00
2023-05-19T18:52:40.407Z,12.00
2023-05-19T18:55:07.835Z,12.20
2023-05-19T18:57:34.672Z,12.40
2023-05-19T19:00:01.604Z,12.60
2023-05-19T19:02:28.523Z,12.60
2023-05-19T19:04:55.522Z,12.50
2023-05-19T19:07:25.607Z,12.40
2023-05-19T19:09:52.412Z,12.40
2023-05-19T19:12:20.368Z,12.50
2023-05-19T19:14:47.490Z,12.40
2023-05-19T19:17:14.537Z,12.40
2023-05-19T19:19:41.577Z,12.30
2023-05-19T19:22:08.567Z,12.50
2023-05-19T19:24:35.895Z,12.60
2023-05-19T19:27:02.955Z,12.60
2023-05-19T19:29:29.944Z,12.50
2023-05-19T19:31:56.876Z,12.50
2023-05-19T19:34:23.861Z,12.60
2023-05-19T19:36:50.710Z,12.60
2023-05-19T19:39:17.621Z,12.60
2023-05-19T19:41:44.523Z,12.50
2023-05-19T19:44:11.372Z,12.40
2023-05-19T19:46:38.277Z,12.50
2023-05-19T19:49:05.296Z,12.50
2023-05-19T19:51:32.384Z,12.50
2023-05-19T19:53:59.326Z,12.40
2023-05-19T19:56:27.607Z,12.30
2023-05-19T19:58:56.859Z,12.40
2023-05-19T20:01:27.633Z,12.40
2023-05-19T20:03:55.525Z,12.40
2023-05-19T20:06:22.728Z,12.40
2023-05-19T20:08:49.895Z,12.30
2023-05-19T20:11:16.854Z,12.50
2023-05-19T20:13:43.694Z,12.60
2023-05-19T20:16:10.740Z,12.70
2023-05-19T20:18:37.633Z,12.60
2023-05-19T20:21:04.533Z,12.60
2023-05-19T20:23:31.404Z,12.70
2023-05-19T20:26:10.253Z,12.50
2023-05-19T20:28:38.486Z,12.40
2023-05-19T20:31:06.355Z,12.30
2023-05-19T20:33:33.244Z,12.30
2023-05-19T20:36:00.233Z,12.20
2023-05-19T20:38:27.254Z,12.30
2023-05-19T20:40:54.870Z,12.40
2023-05-19T20:43:21.840Z,12.60
2023-05-19T20:45:48.819Z,12.60
2023-05-19T20:48:15.999Z,12.50
2023-05-19T20:50:43.072Z,12.40
2023-05-19T20:53:10.135Z,12.40
2023-05-19T20:55:38.270Z,12.50
2023-05-19T20:58:05.502Z,12.60
2023-05-19T21:00:32.833Z,12.60
2023-05-19T21:03:00.050Z,12.70
2023-05-19T21:05:26.966Z,12.60
2023-05-19T21:07:53.918Z,12.50
2023-05-19T21:10:20.984Z,12.40
2023-05-19T21:12:47.966Z,12.30
2023-05-19T21:15:22.814Z,12.30
2023-05-19T21:17:49.713Z,12.30
2023-05-19T21:20:16.571Z,12.40
2023-05-19T21:22:43.401Z,12.40
2023-05-19T21:25:10.471Z,12.50
2023-05-19T21:27:39.451Z,12.50
2023-05-19T21:30:07.014Z,12.40
2023-05-19T21:32:33.963Z,12.40
2023-05-19T21:35:01.282Z,12.40
2023-05-19T21:37:28.121Z,12.50
2023-05-19T21:39:54.958Z,12.60
2023-05-19T21:42:21.796Z,12.60
2023-05-19T21:44:48.648Z,12.60
2023-05-19T21:47:16.129Z,12.50
2023-05-19T21:49:42.994Z,12.50
2023-05-19T21:52:10.397Z,12.50
2023-05-19T21:54:37.450Z,12.50
2023-05-19T21:57:04.494Z,12.40
2023-05-19T21:59:31.431Z,12.40
2023-05-19T22:01:58.676Z,12.50
2023-05-19T22:04:25.657Z,12.50
2023-05-19T22:06:52.502Z,12.40
2023-05-19T22:09:19.358Z,12.20
2023-05-19T22:11:46.322Z,12.20
2023-05-19T22:14:13.234Z,12.20
2023-05-19T22:16:40.254Z,12.10
2023-05-19T22:19:07.335Z,12.10
2023-05-19T22:21:34.277Z,12.10
2023-05-19T22:24:01.144Z,12.20
2023-05-19T22:26:28.146Z,12.30
2023-05-19T22:28:55.628Z,12.20
2023-05-19T22:31:22.485Z,12.30
2023-05-19T22:33:49.339Z,12.40
2023-05-19T22:36:16.553Z,12.40
2023-05-19T22:38:43.451Z,12.40
2023-05-19T22:41:10.459Z,12.40
2023-05-19T22:43:38.299Z,12.40
2023-05-19T22:46:05.575Z,12.50
2023-05-19T22:48:32.488Z,12.40
2023-05-19T22:50:59.322Z,12.40
2023-05-19T22:53:26.159Z,12.40
2023-05-19T22:55:53.011Z,12.30
2023-05-19T22:58:19.846Z,12.30
2023-05-19T23:00:46.701Z,12.30
2023-05-19T23:03:13.632Z,12.40
2023-05-19T23:05:40.736Z,12.40
2023-05-19T23:08:07.604Z,12.50
2023-05-19T23:10:34.449Z,12.40
2023-05-19T23:13:01.292Z,12.40
2023-05-19T23:15:28.177Z,12.40
2023-05-19T23:17:55.169Z,12.40
2023-05-19T23:20:22.180Z,12.40
2023-05-19T23:22:49.019Z,12.40
2023-05-19T23:25:15.845Z,12.10
2023-05-19T23:27:42.708Z,12.10
2023-05-19T23:30:09.761Z,12.10
2023-05-19T23:32:36.785Z,12.10
2023-05-19T23:35:11.528Z,12.10
2023-05-19T23:37:38.464Z,12.10
2023-05-19T23:40:06.504Z,12.10
2023-05-19T23:42:33.350Z,12.20
2023-05-19T23:45:00.268Z,12.20
2023-05-19T23:47:27.179Z,12.20
2023-05-19T23:49:53.976Z,12.00
2023-05-19T23:52:20.959Z,11.80
2023-05-19T23:54:48.306Z,11.90
2023-05-19T23:57:15.753Z,11.90
2023-05-19T23:59:43.138Z,11.60
